Time;durP1;ratioP1;P1;durP2;ratioP2;P2;SDS_P1;SDS_P2;PMS_P1;PMS_P2;Temp;Humidity;BMP_temperature;BMP_pressure;BME280_temperature;BME280_humidity;BME280_pressure;Samples;Min_cycle;Max_cycle;Signal;HPM_P1;HPM_P2
2023/02/28 00:02:20;;;;;;;23.70;10.40;;;;;;;2.74;51.97;101609.88;4889981;28;97416;-80
2023/02/28 00:04:52;;;;;;;19.27;10.27;;;;;;;2.86;51.79;101634.31;4889361;28;96744;-81
2023/02/28 00:07:18;;;;;;;21.20;10.63;;;;;;;2.66;51.07;101612.31;4878152;28;96818;-80
2023/02/28 00:09:44;;;;;;;23.83;10.27;;;;;;;2.86;51.50;101633.44;4894962;28;98240;-80
2023/02/28 00:12:10;;;;;;;20.80;9.90;;;;;;;2.85;51.25;101642.06;4872098;28;101514;-81
2023/02/28 00:14:38;;;;;;;23.63;11.07;;;;;;;2.89;51.43;101636.09;4910999;28;97004;-80
2023/02/28 00:17:04;;;;;;;22.93;10.00;;;;;;;2.78;50.85;101625.50;4889193;28;97359;-81
2023/02/28 00:19:29;;;;;;;21.50;10.13;;;;;;;2.69;50.94;101628.81;4890255;28;101824;-80
2023/02/28 00:21:55;;;;;;;26.20;10.20;;;;;;;2.78;51.34;101632.44;4866959;28;101519;-81
2023/02/28 00:24:21;;;;;;;20.50;10.70;;;;;;;2.75;51.11;101622.00;4878231;28;97708;-80
2023/02/28 00:26:46;;;;;;;21.77;10.07;;;;;;;2.83;50.98;101633.41;4878322;28;97147;-80
2023/02/28 00:29:12;;;;;;;23.60;10.60;;;;;;;2.73;50.60;101608.97;4894133;28;101720;-82
2023/02/28 00:31:37;;;;;;;22.63;10.60;;;;;;;2.76;51.03;101624.59;4900904;28;101288;-83
2023/02/28 00:34:03;;;;;;;16.47;8.17;;;;;;;2.70;49.20;101614.97;4883478;28;97200;-80
2023/02/28 00:36:29;;;;;;;21.33;9.40;;;;;;;2.74;49.53;101622.84;4885034;28;96997;-80
2023/02/28 00:38:55;;;;;;;20.37;9.07;;;;;;;2.78;49.83;101625.50;4901865;28;98540;-81
2023/02/28 00:41:20;;;;;;;20.50;8.93;;;;;;;2.82;49.12;101626.44;4874791;28;101522;-80
2023/02/28 00:43:46;;;;;;;17.00;8.27;;;;;;;2.65;49.16;101611.47;4895855;28;97281;-79
2023/02/28 00:46:12;;;;;;;16.57;9.10;;;;;;;2.75;49.03;101625.47;4878459;28;97368;-82
2023/02/28 00:48:37;;;;;;;16.87;9.10;;;;;;;2.70;49.37;101621.91;4895279;28;101378;-83
2023/02/28 00:51:03;;;;;;;15.63;9.03;;;;;;;2.74;49.17;101633.22;4913491;28;98010;-81
2023/02/28 00:53:32;;;;;;;16.10;8.70;;;;;;;2.63;49.65;101625.22;4911587;28;96867;-81
2023/02/28 00:55:58;;;;;;;22.20;10.70;;;;;;;2.71;49.79;101623.66;4895211;28;97229;-81
2023/02/28 00:58:25;;;;;;;18.97;9.50;;;;;;;2.61;49.99;101613.94;4891208;28;101667;-81
2023/02/28 01:00:52;;;;;;;20.27;9.73;;;;;;;2.69;49.99;101623.63;4877102;28;100866;-80
2023/02/28 01:03:19;;;;;;;21.67;10.03;;;;;;;2.66;49.95;101627.88;4887006;28;97324;-82
2023/02/28 01:05:45;;;;;;;25.57;10.77;;;;;;;2.61;49.99;101609.63;4889006;28;97186;-80
2023/02/28 01:08:11;;;;;;;20.77;10.07;;;;;;;2.74;49.71;101622.84;4892751;28;101284;-80
2023/02/28 01:10:38;;;;;;;17.53;8.93;;;;;;;2.71;50.00;101621.94;4880490;28;101494;-81
2023/02/28 01:13:03;;;;;;;22.60;10.43;;;;;;;2.75;49.79;101627.19;4912892;28;97117;-82
2023/02/28 01:15:29;;;;;;;22.47;9.70;;;;;;;2.69;49.92;101613.25;4895795;28;97446;-81
2023/02/28 01:17:54;;;;;;;20.17;9.70;;;;;;;2.72;49.89;101617.63;4894386;28;101247;-82
2023/02/28 01:20:21;;;;;;;21.00;9.30;;;;;;;2.71;50.09;101619.34;4880763;28;100854;-81
2023/02/28 01:22:46;;;;;;;21.20;9.93;;;;;;;2.67;50.26;101614.06;4893715;28;96808;-79
2023/02/28 01:25:12;;;;;;;23.40;9.83;;;;;;;2.66;50.12;101612.31;4893788;28;96951;-83
2023/02/28 01:27:39;;;;;;;22.27;10.50;;;;;;;2.51;50.42;101586.13;4914249;28;97963;-82
2023/02/28 01:30:06;;;;;;;20.47;9.23;;;;;;;2.51;51.00;101604.25;4888240;28;98382;-80
2023/02/28 01:32:32;;;;;;;22.30;9.67;;;;;;;2.52;50.61;101593.91;4895199;28;98058;-80
2023/02/28 01:34:57;;;;;;;21.07;11.40;;;;;;;2.58;50.24;101617.34;4878686;28;97048;-80
2023/02/28 01:37:23;;;;;;;17.03;9.63;;;;;;;2.57;51.17;101615.63;4892680;28;100987;-81
2023/02/28 01:39:48;;;;;;;25.03;10.20;;;;;;;2.60;50.57;101620.84;4890883;28;98730;-81
2023/02/28 01:42:14;;;;;;;21.97;10.20;;;;;;;2.61;50.88;101613.94;4894525;28;97076;-81
2023/02/28 01:45:17;;;;;;;26.10;9.40;;;;;;;2.66;51.30;101615.78;4864429;28;96951;-80
2023/02/28 01:47:43;;;;;;;19.00;9.88;;;;;;;2.62;51.94;101614.00;4875614;28;101095;-81
2023/02/28 01:50:18;;;;;;;26.07;10.17;;;;;;;2.61;51.61;101626.91;4895009;28;101157;-85
2023/02/28 01:52:44;;;;;;;23.00;10.37;;;;;;;2.48;52.49;101613.72;4894577;28;97037;-80
2023/02/28 01:55:11;;;;;;;24.50;11.47;;;;;;;2.42;52.37;101604.97;4878973;28;96947;-84
2023/02/28 01:57:43;;;;;;;23.53;10.00;;;;;;;2.45;52.86;101615.38;4897205;28;98317;-80
2023/02/28 02:00:13;;;;;;;23.33;10.00;;;;;;;2.46;52.92;101612.81;4891773;28;101518;-82
2023/02/28 02:02:39;;;;;;;21.97;10.00;;;;;;;2.41;52.01;101601.47;4883159;28;97376;-80
2023/02/28 02:05:07;;;;;;;24.13;11.67;;;;;;;2.31;51.99;101581.41;4910036;28;97189;-80
2023/02/28 02:07:37;;;;;;;25.57;11.87;;;;;;;2.56;52.39;101618.16;4868200;28;101465;-84
2023/02/28 02:10:14;;;;;;;27.93;11.63;;;;;;;2.59;52.57;101619.13;4889951;28;99652;-80
2023/02/28 02:13:11;;;;;;;27.30;10.70;;;;;;;2.55;53.14;101629.38;4876144;28;97045;-79
2023/02/28 02:16:03;;;;;;;18.63;10.17;;;;;;;2.42;53.56;101617.91;4898130;28;97400;-79
2023/02/28 02:18:38;;;;;;;21.43;10.20;;;;;;;2.44;53.56;101616.22;4905606;28;97983;-81
2023/02/28 02:21:04;;;;;;;23.43;10.83;;;;;;;2.51;53.88;101619.81;4910015;28;101665;-80
2023/02/28 02:23:41;;;;;;;25.90;11.27;;;;;;;2.55;53.35;101612.09;4909497;28;97516;-80
2023/02/28 02:26:21;;;;;;;24.43;11.27;;;;;;;2.48;53.10;101607.66;4910348;28;97259;-80
2023/02/28 02:29:11;;;;;;;22.63;10.67;;;;;;;2.56;52.78;101606.09;4878410;28;101521;-80
2023/02/28 02:31:51;;;;;;;31.43;11.93;;;;;;;2.56;53.42;101611.28;4909955;28;101688;-80
2023/02/28 02:34:33;;;;;;;21.90;10.83;;;;;;;2.57;53.36;101607.84;4911334;28;96843;-80
2023/02/28 02:37:02;;;;;;;29.30;10.67;;;;;;;2.51;52.41;101612.03;4881609;28;97045;-80
2023/02/28 02:39:31;;;;;;;22.87;10.87;;;;;;;2.52;52.95;101613.78;4892419;28;101202;-80
2023/02/28 02:41:59;;;;;;;24.63;10.77;;;;;;;2.55;52.39;101606.94;4911491;28;98351;-80
2023/02/28 02:44:44;;;;;;;21.47;10.90;;;;;;;2.53;52.98;101610.31;4861848;28;97246;-81
2023/02/28 02:47:17;;;;;;;20.90;11.10;;;;;;;2.57;52.87;101605.25;4893634;28;96845;-84
2023/02/28 02:49:48;;;;;;;20.00;9.90;;;;;;;2.51;53.63;101612.91;4890370;28;101651;-80
2023/02/28 02:52:15;;;;;;;24.83;10.43;;;;;;;2.49;54.37;101609.41;4873587;28;101202;-81
2023/02/28 02:54:43;;;;;;;21.20;10.47;;;;;;;2.48;54.11;101600.75;4895689;28;97346;-80
2023/02/28 02:57:22;;;;;;;24.23;10.93;;;;;;;2.47;53.76;101604.19;4881320;28;97294;-80
2023/02/28 02:59:49;;;;;;;23.90;11.17;;;;;;;2.31;53.82;101584.00;4882787;28;101814;-80
2023/02/28 03:02:17;;;;;;;24.43;10.33;;;;;;;2.33;54.04;101595.28;4870089;28;101596;-79
2023/02/28 03:04:46;;;;;;;24.07;10.53;;;;;;;2.35;54.48;101605.66;4899145;28;97251;-81
2023/02/28 03:07:11;;;;;;;24.83;10.47;;;;;;;2.43;54.17;101604.97;4881180;28;97156;-84
2023/02/28 03:09:38;;;;;;;23.50;10.77;;;;;;;2.40;53.03;101606.63;4901738;28;101700;-79
2023/02/28 03:12:10;;;;;;;21.17;11.40;;;;;;;2.29;53.87;101609.00;4915997;28;97889;-79
2023/02/28 03:14:47;;;;;;;21.87;10.20;;;;;;;2.39;53.73;101610.09;4899171;28;96735;-80
2023/02/28 03:17:13;;;;;;;20.87;10.77;;;;;;;2.47;53.16;101617.16;4914447;28;97514;-82
2023/02/28 03:19:47;;;;;;;22.73;10.07;;;;;;;2.41;53.11;101600.59;4914978;28;101912;-80
2023/02/28 03:22:31;;;;;;;23.30;11.63;;;;;;;2.38;53.47;101613.50;4883659;28;101130;-84
2023/02/28 03:25:03;;;;;;;24.20;11.23;;;;;;;2.21;53.72;101601.09;4913701;28;98076;-80
2023/02/28 03:27:31;;;;;;;22.33;10.87;;;;;;;2.31;52.85;101617.69;4899380;28;99603;-80
2023/02/28 03:30:02;;;;;;;24.80;10.27;;;;;;;2.19;53.60;101609.66;4878845;28;101551;-80
2023/02/28 03:32:41;;;;;;;19.23;11.00;;;;;;;2.29;53.27;101611.59;4899393;28;100761;-80
2023/02/28 03:35:11;;;;;;;24.63;11.37;;;;;;;2.31;52.74;101620.28;4899583;28;97199;-80
2023/02/28 03:37:39;;;;;;;24.17;11.57;;;;;;;2.27;53.30;101615.88;4898222;28;96749;-79
2023/02/28 03:40:08;;;;;;;23.13;11.63;;;;;;;2.37;53.47;101620.41;4890648;28;101469;-79
2023/02/28 03:42:36;;;;;;;21.70;12.00;;;;;;;2.25;53.20;101602.88;4898971;28;97888;-81
2023/02/28 03:45:13;;;;;;;23.03;11.67;;;;;;;2.14;53.62;101588.84;4899165;28;101306;-80
2023/02/28 03:48:09;;;;;;;26.67;11.93;;;;;;;2.26;53.98;101606.34;4868275;28;97367;-80
2023/02/28 03:50:38;;;;;;;28.20;12.93;;;;;;;2.35;53.49;101627.25;4878660;28;97851;-81
2023/02/28 03:53:14;;;;;;;23.83;11.97;;;;;;;2.30;53.28;101615.94;4899837;28;101033;-80
2023/02/28 03:56:12;;;;;;;24.33;12.97;;;;;;;2.31;53.27;101633.25;4916178;28;96859;-80
2023/02/28 03:58:47;;;;;;;26.33;12.53;;;;;;;2.30;53.52;101620.22;4903849;28;96915;-80
2023/02/28 04:01:19;;;;;;;26.30;14.00;;;;;;;2.45;53.03;101636.13;4896674;28;101251;-85
2023/02/28 04:03:44;;;;;;;26.75;13.38;;;;;;;2.37;52.98;101623.00;4878642;28;101164;-80
2023/02/28 04:06:16;;;;;;;28.73;12.97;;;;;;;2.44;52.94;101637.84;4911197;28;97242;-81
2023/02/28 04:08:42;;;;;;;25.30;12.90;;;;;;;2.38;52.96;101626.44;4893103;28;97593;-80
2023/02/28 04:11:20;;;;;;;29.10;14.90;;;;;;;2.26;53.67;101612.41;4877685;28;101615;-80
2023/02/28 04:13:45;;;;;;;27.00;13.67;;;;;;;2.19;53.81;101617.44;4886063;28;101475;-80
2023/02/28 04:16:11;;;;;;;32.37;14.63;;;;;;;2.29;53.94;101636.63;4894589;28;96765;-80
2023/02/28 04:18:40;;;;;;;25.63;12.97;;;;;;;2.09;53.58;101608.59;4876265;28;97941;-80
2023/02/28 04:21:06;;;;;;;22.83;12.90;;;;;;;2.34;54.14;101642.78;4891084;28;101064;-79
2023/02/28 04:23:32;;;;;;;27.47;12.93;;;;;;;2.35;53.61;101642.81;4873181;28;101020;-80
2023/02/28 04:25:58;;;;;;;28.10;14.53;;;;;;;2.26;53.45;101620.16;4910889;28;96813;-80
2023/02/28 04:28:24;;;;;;;32.73;14.43;;;;;;;2.14;54.08;101611.28;4914567;28;97121;-85
2023/02/28 04:30:57;;;;;;;28.53;14.03;;;;;;;2.27;53.45;101636.63;4905642;28;97791;-80
2023/02/28 04:33:23;;;;;;;26.40;12.73;;;;;;;2.23;53.11;101622.69;4921606;28;97583;-80
2023/02/28 04:35:58;;;;;;;25.17;12.03;;;;;;;2.35;52.40;101642.81;4890739;28;97539;-79
2023/02/28 04:38:24;;;;;;;27.40;11.90;;;;;;;2.31;53.20;101648.78;4873492;28;97054;-79
2023/02/28 04:40:49;;;;;;;28.10;12.70;;;;;;;2.33;52.61;101649.69;4903907;28;101609;-80
2023/02/28 04:43:14;;;;;;;25.67;12.50;;;;;;;2.06;52.72;101605.94;4882175;28;100836;-83
2023/02/28 04:45:40;;;;;;;25.70;12.67;;;;;;;2.30;52.91;101644.47;4914907;28;96750;-80
2023/02/28 04:48:05;;;;;;;23.30;11.50;;;;;;;2.31;52.29;101635.84;4883684;28;96931;-80
2023/02/28 04:50:31;;;;;;;26.47;12.67;;;;;;;2.44;52.21;101652.50;4907726;28;97552;-80
2023/02/28 04:52:57;;;;;;;24.20;12.37;;;;;;;2.38;52.24;101644.59;4898779;28;97951;-80
2023/02/28 04:55:22;;;;;;;27.80;13.47;;;;;;;2.19;53.02;101618.31;4898151;28;97679;-80
2023/02/28 04:57:48;;;;;;;27.67;13.57;;;;;;;2.35;52.82;101654.91;4892405;28;97749;-79
2023/02/28 05:00:16;;;;;;;27.90;13.47;;;;;;;2.34;53.54;101650.56;4888206;28;100880;-80
2023/02/28 05:02:42;;;;;;;27.53;12.40;;;;;;;2.10;52.93;101612.94;4898124;28;98393;-80
2023/02/28 05:05:08;;;;;;;25.50;12.80;;;;;;;2.42;52.28;101657.66;4882277;28;96669;-80
2023/02/28 05:07:34;;;;;;;26.87;12.03;;;;;;;2.37;52.34;101661.88;4895558;28;97480;-79
2023/02/28 05:09:59;;;;;;;28.47;12.93;;;;;;;2.33;52.44;101653.97;4899152;28;98016;-81
2023/02/28 05:12:25;;;;;;;27.40;13.03;;;;;;;2.30;52.68;101660.00;4898039;28;101223;-82
2023/02/28 05:14:50;;;;;;;22.30;11.60;;;;;;;2.32;52.97;101650.53;4898469;28;96869;-80
2023/02/28 05:17:16;;;;;;;28.20;13.20;;;;;;;2.17;53.09;101635.53;4914099;28;97023;-82
2023/02/28 05:19:42;;;;;;;37.77;12.70;;;;;;;2.33;53.20;101656.56;4881719;28;101677;-80
2023/02/28 05:22:14;;;;;;;26.70;12.37;;;;;;;2.26;53.24;101653.84;4910214;28;100934;-80
2023/02/28 05:24:39;;;;;;;27.65;12.50;;;;;;;2.35;52.78;101663.53;4912665;28;97294;-81
2023/02/28 05:27:05;;;;;;;28.00;12.57;;;;;;;2.17;53.09;101645.91;4882300;28;97289;-80
2023/02/28 05:29:30;;;;;;;29.40;12.93;;;;;;;2.30;52.57;101660.00;4905521;28;101402;-80
2023/02/28 05:31:56;;;;;;;33.83;14.30;;;;;;;2.38;52.66;101668.78;4884693;28;101821;-80
2023/02/28 05:34:21;;;;;;;30.33;13.60;;;;;;;2.41;52.59;101666.25;4877094;28;97308;-80
2023/02/28 05:36:47;;;;;;;25.73;12.20;;;;;;;2.40;52.66;101674.03;4893868;28;97109;-80
2023/02/28 05:39:12;;;;;;;25.23;11.70;;;;;;;2.39;52.29;101673.16;4878300;28;101547;-80
2023/02/28 05:41:40;;;;;;;25.83;12.50;;;;;;;2.26;52.31;101658.19;4897608;28;101254;-81
2023/02/28 05:44:05;;;;;;;21.70;11.77;;;;;;;2.39;52.13;101683.53;4896903;28;97483;-81
2023/02/28 05:46:31;;;;;;;24.67;12.07;;;;;;;2.38;51.59;101679.16;4881735;28;97788;-80
2023/02/28 05:48:59;;;;;;;20.17;11.47;;;;;;;2.41;51.45;101683.53;4897784;28;98526;-80
2023/02/28 05:51:25;;;;;;;27.07;12.03;;;;;;;2.24;51.21;101662.44;4878223;28;101722;-81
2023/02/28 05:53:50;;;;;;;29.73;12.40;;;;;;;2.34;51.44;101686.84;4891101;28;96940;-81
2023/02/28 05:56:16;;;;;;;26.57;12.40;;;;;;;2.30;51.21;101674.66;4876289;28;98367;-82
2023/02/28 05:58:41;;;;;;;36.87;12.80;;;;;;;2.36;51.82;101691.22;4904541;28;101494;-81
2023/02/28 06:01:35;;;;;;;22.97;12.17;;;;;;;2.36;51.66;101699.00;4894348;28;101745;-80
2023/02/28 06:04:02;;;;;;;25.40;13.53;;;;;;;2.34;51.38;101692.91;4889295;28;97378;-82
2023/02/28 06:06:29;;;;;;;30.77;13.20;;;;;;;2.31;51.46;101695.44;4878478;28;97576;-80
2023/02/28 06:08:55;;;;;;;30.90;13.17;;;;;;;2.28;51.95;101704.88;4899372;28;97871;-88
2023/02/28 06:11:20;;;;;;;26.47;13.03;;;;;;;2.31;51.77;101703.22;4892349;28;97816;-82
2023/02/28 06:13:46;;;;;;;23.47;12.13;;;;;;;2.30;51.76;101705.75;4893215;28;97174;-81
2023/02/28 06:16:12;;;;;;;26.13;13.17;;;;;;;2.38;51.80;101699.88;4872117;28;97329;-82
2023/02/28 06:18:38;;;;;;;26.07;13.70;;;;;;;2.26;51.92;101695.31;4889353;28;101537;-81
2023/02/28 06:21:03;;;;;;;24.13;13.47;;;;;;;2.40;51.32;101715.50;4889510;28;101363;-82
2023/02/28 06:23:29;;;;;;;29.87;12.33;;;;;;;2.37;51.21;101713.69;4870639;28;97627;-80
2023/02/28 06:26:13;;;;;;;26.40;13.10;;;;;;;2.41;50.92;101710.31;4887972;28;97398;-80
2023/02/28 06:28:39;;;;;;;21.80;12.87;;;;;;;2.45;51.40;101714.75;4892043;28;101003;-81
2023/02/28 06:31:10;;;;;;;24.83;13.13;;;;;;;2.44;51.11;101725.97;4889389;28;97834;-80
2023/02/28 06:33:36;;;;;;;21.20;11.80;;;;;;;2.45;50.81;101724.25;4888483;28;96837;-78
2023/02/28 06:36:02;;;;;;;22.63;11.97;;;;;;;2.46;50.90;101715.63;4900466;28;98442;-80
2023/02/28 06:38:27;;;;;;;23.80;12.20;;;;;;;2.63;50.43;101726.34;4879358;28;101225;-82
2023/02/28 06:40:54;;;;;;;28.00;14.67;;;;;;;2.95;50.11;101727.00;4894315;28;101978;-83
2023/02/28 06:43:20;;;;;;;24.13;12.20;;;;;;;3.17;49.29;101728.25;4895723;28;97264;-84
2023/02/28 06:45:46;;;;;;;25.27;13.37;;;;;;;3.35;49.51;101728.63;4883984;28;97007;-83
2023/02/28 06:48:11;;;;;;;26.33;12.07;;;;;;;3.60;48.65;101729.91;4894394;28;101380;-83
2023/02/28 06:50:37;;;;;;;23.73;13.17;;;;;;;3.65;48.03;101736.91;4887389;28;101513;-83
2023/02/28 06:53:02;;;;;;;22.27;12.00;;;;;;;3.64;48.03;101733.44;4890899;28;97076;-83
2023/02/28 06:55:28;;;;;;;25.83;12.93;;;;;;;3.80;48.20;101726.78;4875289;28;98017;-84
2023/02/28 06:57:54;;;;;;;23.27;12.17;;;;;;;4.00;47.32;101734.88;4883786;28;98557;-83
2023/02/28 07:00:20;;;;;;;19.73;11.03;;;;;;;4.08;46.43;101720.28;4893602;28;98869;-85
2023/02/28 07:02:47;;;;;;;24.27;12.00;;;;;;;4.23;45.71;101740.44;4887059;28;97370;-84
2023/02/28 07:05:12;;;;;;;18.50;10.47;;;;;;;4.35;45.41;101721.53;4880365;28;96957;-83
2023/02/28 07:07:43;;;;;;;19.40;10.43;;;;;;;4.34;45.05;101697.25;4874290;28;101198;-83
2023/02/28 07:10:11;;;;;;;18.77;10.47;;;;;;;4.68;44.69;101731.50;4888794;28;101550;-83
2023/02/28 07:12:37;;;;;;;21.50;9.47;;;;;;;4.84;43.82;101733.44;4892155;28;97347;-84
2023/02/28 07:15:03;;;;;;;18.33;9.53;;;;;;;5.07;42.81;101732.84;4895016;28;97076;-83
2023/02/28 07:17:29;;;;;;;15.57;9.60;;;;;;;5.07;42.73;101702.47;4882188;28;101201;-82
2023/02/28 07:19:54;;;;;;;15.57;7.50;;;;;;;5.28;42.06;101729.59;4908735;28;98440;-83
2023/02/28 07:22:20;;;;;;;14.03;7.97;;;;;;;5.28;41.40;101735.66;4889118;28;97401;-84
2023/02/28 07:24:46;;;;;;;18.93;9.07;;;;;;;5.44;41.48;101734.09;4893299;28;97539;-82
2023/02/28 07:27:11;;;;;;;17.47;8.57;;;;;;;5.55;41.14;101739.38;4885394;28;100937;-84
2023/02/28 07:29:38;;;;;;;13.57;7.97;;;;;;;5.48;40.99;101703.72;4881991;28;99759;-80
2023/02/28 07:32:03;;;;;;;13.80;8.07;;;;;;;5.78;40.11;101719.59;4894703;28;97358;-82
2023/02/28 07:34:29;;;;;;;12.13;7.03;;;;;;;5.79;39.15;101715.25;4902916;28;97353;-84
2023/02/28 07:36:54;;;;;;;13.47;7.60;;;;;;;6.24;40.27;101727.78;4887514;28;101180;-85
2023/02/28 07:39:21;;;;;;;14.57;8.82;;;;;;;6.52;39.81;101735.78;4887262;28;98469;-85
2023/02/28 07:41:47;;;;;;;16.53;8.30;;;;;;;6.71;39.47;101734.13;4890639;28;97147;-83
2023/02/28 07:44:12;;;;;;;18.43;8.47;;;;;;;7.03;39.08;101742.94;4892224;28;98144;-83
2023/02/28 07:46:38;;;;;;;13.83;8.67;;;;;;;7.30;38.69;101738.69;4908962;28;98363;-83
2023/02/28 07:49:04;;;;;;;15.20;8.40;;;;;;;7.44;38.24;101739.53;4908992;28;101223;-83
2023/02/28 07:51:30;;;;;;;16.77;9.77;;;;;;;7.50;37.94;101743.91;4899377;28;97231;-84
2023/02/28 07:53:56;;;;;;;17.43;7.23;;;;;;;7.41;37.01;101743.91;4897079;28;97186;-78
2023/02/28 07:56:22;;;;;;;15.95;7.00;;;;;;;7.69;37.30;101732.59;4872391;28;101457;-82
2023/02/28 07:58:48;;;;;;;9.95;6.00;;;;;;;7.80;37.20;101723.91;4888982;28;98454;-83
2023/02/28 08:01:14;;;;;;;11.80;6.00;;;;;;;8.13;36.27;101736.94;4893910;28;96811;-82
2023/02/28 08:03:40;;;;;;;10.10;6.50;;;;;;;8.13;35.88;101718.63;4907354;28;97266;-84
2023/02/28 08:06:08;;;;;;;10.25;6.18;;;;;;;8.27;35.62;101731.69;4882300;28;101176;-89
2023/02/28 08:08:34;;;;;;;11.82;6.30;;;;;;;8.28;36.48;101707.25;4880586;28;101422;-91
2023/02/28 08:11:01;;;;;;;15.15;7.55;;;;;;;8.91;35.98;101732.38;4882820;28;98258;-90
2023/02/28 08:13:27;;;;;;;15.23;8.32;;;;;;;9.09;36.10;101719.19;4871833;28;97613;-84
2023/02/28 08:15:54;;;;;;;13.75;6.85;;;;;;;9.32;35.15;101719.03;4908871;28;97608;-84
2023/02/28 08:18:20;;;;;;;13.45;7.18;;;;;;;9.64;33.94;101728.44;4879496;28;102260;-82
2023/02/28 08:20:46;;;;;;;8.98;5.45;;;;;;;9.24;32.72;101703.34;4896179;28;96856;-84
2023/02/28 08:23:12;;;;;;;9.60;6.30;;;;;;;9.28;33.06;101728.69;4894112;28;96833;-80
2023/02/28 08:25:37;;;;;;;11.43;6.82;;;;;;;9.62;34.05;101723.19;4892569;28;101530;-80
2023/02/28 08:28:03;;;;;;;12.32;6.75;;;;;;;9.90;33.79;101726.44;4888542;28;101671;-80
2023/02/28 08:30:28;;;;;;;10.00;6.72;;;;;;;10.35;33.33;101724.28;4886347;28;97036;-80
2023/02/28 08:32:55;;;;;;;13.63;7.43;;;;;;;10.78;32.95;101725.53;4892995;28;97633;-81
2023/02/28 08:35:21;;;;;;;12.50;6.93;;;;;;;10.53;31.46;101696.06;4887696;28;101283;-80
2023/02/28 08:37:50;;;;;;;13.60;7.45;;;;;;;10.53;32.13;101724.97;4888726;28;102069;-81
2023/02/28 08:40:18;;;;;;;12.57;6.78;;;;;;;10.80;31.73;101716.75;4876970;28;97338;-80
2023/02/28 08:42:47;;;;;;;10.25;6.97;;;;;;;10.93;31.92;101704.31;4894709;28;97650;-80
2023/02/28 08:45:14;;;;;;;12.20;7.55;;;;;;;11.76;31.33;101708.34;4887810;28;101309;-81
2023/02/28 08:47:39;;;;;;;11.90;7.70;;;;;;;11.97;31.54;101722.91;4873182;28;101618;-81
2023/02/28 08:50:06;;;;;;;12.43;7.03;;;;;;;12.56;30.67;101706.88;4879116;28;96832;-81
2023/02/28 08:52:32;;;;;;;14.45;7.72;;;;;;;12.64;29.10;101718.13;4897815;28;97175;-82
2023/02/28 08:54:57;;;;;;;9.50;6.03;;;;;;;12.77;29.07;101721.38;4893069;28;101340;-81
2023/02/28 08:57:23;;;;;;;8.63;6.57;;;;;;;13.23;28.29;101713.31;4869133;28;102008;-81
2023/02/28 08:59:48;;;;;;;11.77;6.60;;;;;;;13.85;27.55;101712.75;4895291;28;97256;-77
2023/02/28 09:02:14;;;;;;;18.85;7.32;;;;;;;14.85;27.47;101712.66;4891964;28;97596;-81
2023/02/28 09:04:40;;;;;;;12.88;7.13;;;;;;;15.19;25.37;101683.41;4905233;28;97726;-79
2023/02/28 09:07:06;;;;;;;12.73;6.82;;;;;;;15.36;25.54;101694.31;4893267;28;100093;-79
2023/02/28 09:09:32;;;;;;;11.02;6.13;;;;;;;15.73;25.63;101700.19;4892404;28;97391;-81
2023/02/28 09:11:57;;;;;;;10.52;5.90;;;;;;;16.84;24.89;101705.97;4927125;28;97225;-79
2023/02/28 09:14:23;;;;;;;10.27;5.70;;;;;;;17.58;23.84;101697.72;4879128;28;101570;-78
2023/02/28 09:16:49;;;;;;;9.73;6.65;;;;;;;17.95;23.32;101685.53;4894149;28;98443;-79
2023/02/28 09:19:14;;;;;;;6.88;4.80;;;;;;;17.71;23.09;101708.66;4876887;28;97163;-79
2023/02/28 09:21:40;;;;;;;6.45;3.97;;;;;;;18.13;21.88;101691.88;4900028;28;97319;-79
2023/02/28 09:24:06;;;;;;;6.30;4.10;;;;;;;17.76;22.18;101694.28;4894189;28;101096;-79
2023/02/28 09:26:32;;;;;;;6.75;4.97;;;;;;;18.24;22.29;101692.25;4873551;28;101253;-81
2023/02/28 09:29:02;;;;;;;8.98;5.18;;;;;;;18.84;22.30;101673.59;4890432;28;96769;-78
2023/02/28 09:31:28;;;;;;;7.43;4.75;;;;;;;19.47;22.09;101695.38;4875786;28;97455;-79
2023/02/28 09:33:55;;;;;;;10.15;4.53;;;;;;;20.10;20.72;101694.84;4877637;28;100418;-79
2023/02/28 09:36:22;;;;;;;7.55;4.90;;;;;;;19.62;20.37;101685.75;4888090;28;101145;-78
2023/02/28 09:38:49;;;;;;;7.30;4.22;;;;;;;18.64;21.23;101659.38;4889535;28;96852;-78
2023/02/28 09:41:17;;;;;;;7.28;4.10;;;;;;;18.61;21.73;101679.94;4890285;28;96951;-78
2023/02/28 09:43:46;;;;;;;10.35;4.55;;;;;;;18.64;21.08;101662.03;4882334;28;99753;-79
2023/02/28 09:46:25;;;;;;;6.80;4.15;;;;;;;18.34;21.11;101661.66;4887837;28;100829;-79
2023/02/28 09:48:51;;;;;;;7.68;4.63;;;;;;;18.21;21.63;101672.00;4902307;28;97649;-78
2023/02/28 09:51:48;;;;;;;9.73;4.60;;;;;;;18.99;21.31;101657.78;4892935;28;97752;-79
2023/02/28 09:54:24;;;;;;;8.30;4.72;;;;;;;19.00;21.16;101669.28;4909277;28;98122;-79
2023/02/28 09:56:58;;;;;;;6.43;4.45;;;;;;;19.04;21.19;101673.50;4870143;28;101676;-78
2023/02/28 09:59:30;;;;;;;9.40;4.57;;;;;;;18.80;21.10;101670.22;4886622;28;97513;-80
2023/02/28 10:02:30;;;;;;;8.00;4.75;;;;;;;18.69;20.95;101680.47;4903388;28;96916;-79
2023/02/28 10:05:10;;;;;;;5.90;4.43;;;;;;;18.38;21.35;101676.53;4883036;28;100165;-79
2023/02/28 10:07:47;;;;;;;7.47;4.72;;;;;;;17.97;21.61;101684.53;4884452;28;101168;-78
2023/02/28 10:10:44;;;;;;;6.22;4.55;;;;;;;17.23;22.94;101681.44;4891896;28;97316;-79
2023/02/28 10:13:15;;;;;;;7.25;4.68;;;;;;;17.37;22.71;101668.47;4867619;28;97227;-79
2023/02/28 10:15:42;;;;;;;13.52;5.20;;;;;;;16.85;23.61;101680.31;4890302;28;101761;-79
2023/02/28 10:18:11;;;;;;;7.00;4.70;;;;;;;16.48;24.12;101686.94;4871666;28;101473;-78
2023/02/28 10:20:39;;;;;;;10.20;5.15;;;;;;;16.21;24.47;101691.47;4887484;28;97579;-78
2023/02/28 10:23:17;;;;;;;7.13;4.80;;;;;;;15.99;23.80;101688.72;4873191;28;97258;-78
2023/02/28 10:25:47;;;;;;;7.95;5.13;;;;;;;15.70;24.65;101687.06;4886096;28;101116;-81
2023/02/28 10:28:15;;;;;;;6.50;4.35;;;;;;;15.63;25.78;101689.88;4891407;28;101705;-77
2023/02/28 10:30:47;;;;;;;6.97;5.10;;;;;;;15.42;24.67;101681.78;4885154;28;97038;-79
2023/02/28 10:33:25;;;;;;;9.40;5.68;;;;;;;14.75;26.11;101683.00;4870946;28;97505;-80
2023/02/28 10:35:52;;;;;;;7.78;5.80;;;;;;;14.44;25.97;101675.06;4897062;28;100754;-79
2023/02/28 10:38:23;;;;;;;11.73;5.95;;;;;;;14.44;26.28;101675.06;4884670;28;101729;-81
2023/02/28 10:40:49;;;;;;;13.27;5.40;;;;;;;14.10;26.81;101676.00;4875687;28;96983;-81
2023/02/28 10:43:14;;;;;;;16.23;5.47;;;;;;;13.69;25.82;101680.59;4862973;28;102712;-80
2023/02/28 10:45:53;;;;;;;11.80;5.22;;;;;;;13.03;26.22;101645.25;4892875;28;101325;-79
2023/02/28 10:48:19;;;;;;;9.23;5.80;;;;;;;13.01;27.44;101677.81;4874169;28;101513;-81
2023/02/28 10:50:49;;;;;;;11.82;6.68;;;;;;;12.86;27.29;101673.75;4907109;28;97493;-82
2023/02/28 10:53:27;;;;;;;12.27;5.93;;;;;;;12.75;28.46;101676.63;4906939;28;96859;-81
2023/02/28 10:56:32;;;;;;;11.07;6.28;;;;;;;12.27;28.14;101652.16;4909487;28;101652;-81
2023/02/28 10:59:26;;;;;;;11.27;5.93;;;;;;;12.33;29.36;101678.34;4908772;28;97834;-81
2023/02/28 11:01:53;;;;;;;7.78;6.05;;;;;;;11.82;28.46;101668.75;4874272;28;97164;-81
2023/02/28 11:04:21;;;;;;;12.55;6.38;;;;;;;11.55;29.29;101667.50;4878015;28;96784;-81
2023/02/28 11:06:48;;;;;;;9.70;5.63;;;;;;;10.88;29.59;101657.13;4908072;28;102112;-81
2023/02/28 11:09:23;;;;;;;12.77;6.72;;;;;;;10.82;29.62;101662.47;4888141;28;101356;-81
2023/02/28 11:11:49;;;;;;;10.57;6.18;;;;;;;10.33;30.59;101665.69;4893278;28;96900;-81
2023/02/28 11:14:29;;;;;;;9.32;5.13;;;;;;;10.16;31.66;101662.38;4890772;28;97618;-79
2023/02/28 11:16:59;;;;;;;10.32;6.55;;;;;;;10.04;31.11;101642.38;4893631;28;102303;-81
2023/02/28 11:19:25;;;;;;;11.05;6.82;;;;;;;10.23;31.13;101661.41;4880691;28;101371;-81
2023/02/28 11:21:57;;;;;;;11.18;7.20;;;;;;;10.09;31.36;101663.31;4899822;28;97289;-82
2023/02/28 11:24:30;;;;;;;;;;;;;;;9.78;31.26;101670.63;4913045;28;97752;-84
2023/02/28 11:26:56;;;;;;;10.70;6.55;;;;;;;9.52;32.11;101656.00;4878809;28;101190;-83